Time;durP1;ratioP1;P1;durP2;ratioP2;P2;SDS_P1;SDS_P2;PMS_P1;PMS_P2;Temp;Humidity;BMP_temperature;BMP_pressure;BME280_temperature;BME280_humidity;BME280_pressure;Samples;Min_cycle;Max_cycle;Signal;HPM_P1;HPM_P2
2022/09/22 00:00:19;;;;;;;4.17;2.80;;;8.20;99.90;;;;;;5031969;28;20216;-61
2022/09/22 00:02:45;;;;;;;3.43;2.50;;;8.20;99.90;;;;;;5031826;28;20210;-61
2022/09/22 00:05:13;;;;;;;4.00;2.70;;;8.20;99.90;;;;;;5031524;28;20213;-60
2022/09/22 00:07:39;;;;;;;6.93;3.13;;;8.20;99.90;;;;;;5031530;28;20311;-59
2022/09/22 00:10:07;;;;;;;6.63;2.90;;;8.20;99.90;;;;;;5031571;28;20209;-61
2022/09/22 00:12:35;;;;;;;5.37;2.53;;;8.20;99.90;;;;;;5031584;28;20208;-61
2022/09/22 00:15:03;;;;;;;6.87;2.93;;;8.10;99.90;;;;;;5031831;28;20211;-61
2022/09/22 00:17:31;;;;;;;7.03;2.80;;;8.20;99.90;;;;;;5031266;28;20861;-61
2022/09/22 00:19:57;;;;;;;5.43;2.90;;;8.10;99.90;;;;;;5031546;28;20207;-59
2022/09/22 00:22:24;;;;;;;6.80;3.60;;;8.10;99.90;;;;;;5031180;28;20682;-61
2022/09/22 00:24:51;;;;;;;6.27;2.63;;;8.10;99.90;;;;;;5031289;28;20581;-60
2022/09/22 00:27:19;;;;;;;5.20;2.60;;;8.10;99.90;;;;;;5031315;28;20228;-61
2022/09/22 00:29:46;;;;;;;7.30;2.80;;;8.10;99.90;;;;;;5031241;28;20748;-59
2022/09/22 00:32:13;;;;;;;5.90;2.13;;;8.10;99.90;;;;;;5031556;28;20261;-62
2022/09/22 00:34:39;;;;;;;6.63;2.40;;;8.10;99.90;;;;;;5031363;28;20215;-61
2022/09/22 00:37:06;;;;;;;4.67;2.67;;;8.10;99.90;;;;;;5030888;28;20645;-62
2022/09/22 00:39:33;;;;;;;7.23;2.20;;;8.20;99.90;;;;;;5030999;28;20260;-61
2022/09/22 00:41:59;;;;;;;3.37;2.60;;;8.20;99.90;;;;;;5031475;28;20212;-61
2022/09/22 00:44:37;;;;;;;3.30;2.23;;;8.10;99.90;;;;;;5031346;28;20213;-59
2022/09/22 00:47:13;;;;;;;5.10;2.57;;;8.20;99.90;;;;;;5031027;28;20218;-59
2022/09/22 00:49:48;;;;;;;3.70;2.30;;;8.10;99.90;;;;;;5031179;28;20261;-59
2022/09/22 00:52:19;;;;;;;4.63;2.60;;;8.10;99.90;;;;;;5032347;28;20204;-61
2022/09/22 00:54:47;;;;;;;3.60;2.40;;;8.10;99.90;;;;;;5034860;28;20213;-62
2022/09/22 00:57:17;;;;;;;3.93;1.93;;;8.10;99.90;;;;;;5034410;28;20230;-61
2022/09/22 00:59:47;;;;;;;5.20;2.10;;;8.10;99.90;;;;;;5034614;28;20214;-59
2022/09/22 01:02:14;;;;;;;4.70;1.97;;;8.00;99.90;;;;;;5034624;28;20204;-62
2022/09/22 01:04:41;;;;;;;4.47;2.00;;;8.10;99.90;;;;;;5034600;28;20635;-61
2022/09/22 01:07:09;;;;;;;3.97;2.07;;;8.10;99.90;;;;;;5034497;28;20220;-60
2022/09/22 01:09:36;;;;;;;2.50;1.97;;;8.10;99.90;;;;;;5034548;28;20589;-60
2022/09/22 01:12:04;;;;;;;2.30;1.80;;;8.10;99.90;;;;;;5034467;28;20670;-60
2022/09/22 01:14:45;;;;;;;5.07;2.10;;;8.10;99.90;;;;;;5035557;28;20207;-61
2022/09/22 01:17:22;;;;;;;3.10;1.93;;;8.10;99.90;;;;;;5038758;28;20311;-61
2022/09/22 01:20:32;;;;;;;2.53;1.80;;;8.20;99.90;;;;;;5039186;28;20340;-61
2022/09/22 01:23:23;;;;;;;3.07;1.87;;;8.20;99.90;;;;;;5034136;28;20238;-62
2022/09/22 01:26:17;;;;;;;3.33;1.93;;;8.20;99.90;;;;;;5034210;28;20610;-61
2022/09/22 01:29:09;;;;;;;4.23;1.90;;;8.20;99.20;;;;;;5034359;28;20207;-61
2022/09/22 01:31:41;;;;;;;5.67;2.00;;;8.20;96.20;;;;;;5034138;28;20206;-61
2022/09/22 01:34:15;;;;;;;4.40;1.70;;;8.20;93.10;;;;;;5034143;28;20268;-62
2022/09/22 01:36:48;;;;;;;4.63;1.70;;;8.20;90.00;;;;;;5033786;28;20757;-61
2022/09/22 01:39:18;;;;;;;7.70;1.93;;;8.20;86.20;;;;;;5033569;28;20752;-61
2022/09/22 01:41:53;;;;;;;4.33;1.73;;;8.30;84.30;;;;;;5033778;28;20212;-61
2022/09/22 01:44:26;;;;;;;2.00;1.90;;;8.30;76.30;;;;;;5033831;28;20210;-61
2022/09/22 01:47:00;;;;;;;3.77;1.90;;;8.30;71.20;;;;;;5033621;28;20226;-61
2022/09/22 01:49:32;;;;;;;4.40;1.73;;;8.30;63.40;;;;;;5033677;28;20249;-61
2022/09/22 01:52:02;;;;;;;4.57;1.93;;;8.30;59.90;;;;;;5033840;28;20211;-61
2022/09/22 01:54:33;;;;;;;2.27;1.30;;;8.30;58.70;;;;;;5033525;28;20560;-61
2022/09/22 01:57:08;;;;;;;2.07;1.60;;;8.30;58.00;;;;;;5033283;28;20230;-61
2022/09/22 01:59:38;;;;;;;2.53;1.57;;;8.30;56.80;;;;;;5033560;28;20214;-61
2022/09/22 02:02:14;;;;;;;2.07;1.40;;;8.30;56.20;;;;;;5033561;28;20692;-61
2022/09/22 02:04:45;;;;;;;1.70;1.47;;;8.20;56.20;;;;;;5033104;28;20304;-60
2022/09/22 02:07:16;;;;;;;1.87;1.43;;;8.20;55.90;;;;;;5033441;28;20295;-59
2022/09/22 02:09:44;;;;;;;3.20;1.83;;;8.20;55.60;;;;;;5033345;28;20674;-61
2022/09/22 02:12:11;;;;;;;2.83;1.73;;;8.20;53.80;;;;;;5033504;28;20211;-61
2022/09/22 02:14:37;;;;;;;7.90;1.63;;;8.20;54.80;;;;;;5033244;28;20210;-61
2022/09/22 02:17:05;;;;;;;2.23;1.57;;;8.20;55.60;;;;;;5032687;28;20226;-61
2022/09/22 02:19:36;;;;;;;1.63;1.50;;;8.20;53.70;;;;;;5033331;28;20260;-61
2022/09/22 02:22:04;;;;;;;4.00;1.50;;;8.20;53.90;;;;;;5033379;28;20202;-61
2022/09/22 02:24:33;;;;;;;5.40;1.60;;;8.20;53.20;;;;;;5033138;28;20279;-61
2022/09/22 02:27:04;;;;;;;2.20;1.40;;;8.10;51.90;;;;;;5032795;28;20340;-61
2022/09/22 02:29:34;;;;;;;3.40;1.50;;;8.10;46.50;;;;;;5033188;28;20256;-60
2022/09/22 02:32:05;;;;;;;2.07;1.37;;;8.10;49.30;;;;;;5033040;28;20722;-58
2022/09/22 02:34:34;;;;;;;3.97;1.33;;;8.20;48.50;;;;;;5033269;28;20211;-60
2022/09/22 02:37:07;;;;;;;2.57;1.87;;;8.10;49.70;;;;;;5032651;28;20226;-59
2022/09/22 02:39:39;;;;;;;2.60;1.70;;;8.10;51.40;;;;;;5032518;28;20695;-61
2022/09/22 02:42:20;;;;;;;1.73;1.30;;;8.10;49.90;;;;;;5032712;28;20207;-59
2022/09/22 02:44:53;;;;;;;2.40;1.20;;;8.20;46.60;;;;;;5032808;28;20268;-62
2022/09/22 02:47:26;;;;;;;1.83;1.33;;;8.20;46.40;;;;;;5032462;28;20222;-62
2022/09/22 02:49:56;;;;;;;4.17;1.20;;;8.10;44.50;;;;;;5032833;28;20233;-61
2022/09/22 02:52:24;;;;;;;2.73;1.40;;;8.10;40.90;;;;;;5032580;28;20215;-62
2022/09/22 02:54:51;;;;;;;4.23;1.20;;;8.10;39.60;;;;;;5032934;28;20211;-59
2022/09/22 02:57:19;;;;;;;2.80;1.60;;;8.10;42.50;;;;;;5032281;28;20234;-61
2022/09/22 02:59:46;;;;;;;1.80;1.33;;;8.10;44.00;;;;;;5032427;28;20216;-61
2022/09/22 03:02:12;;;;;;;2.47;1.10;;;8.10;43.70;;;;;;5032307;28;20215;-61
2022/09/22 03:04:39;;;;;;;4.17;1.30;;;8.10;42.20;;;;;;5032517;28;20212;-61
2022/09/22 03:07:07;;;;;;;4.07;1.97;;;8.10;39.50;;;;;;5031930;28;20737;-61
2022/09/22 03:09:34;;;;;;;4.33;1.80;;;8.10;39.40;;;;;;5031947;28;20211;-61
2022/09/22 03:12:01;;;;;;;3.67;1.83;;;8.10;39.20;;;;;;5032212;28;20221;-61
2022/09/22 03:14:27;;;;;;;3.77;1.87;;;8.10;37.40;;;;;;5031410;28;20206;-61
2022/09/22 03:16:54;;;;;;;2.43;1.60;;;8.10;37.10;;;;;;5031764;28;20229;-60
2022/09/22 03:19:21;;;;;;;2.30;1.60;;;8.00;36.70;;;;;;5032117;28;20620;-61
2022/09/22 03:21:47;;;;;;;2.47;2.00;;;7.90;37.10;;;;;;5032032;28;20264;-61
2022/09/22 03:24:16;;;;;;;3.33;2.00;;;7.90;37.70;;;;;;5031989;28;20256;-59
2022/09/22 03:26:42;;;;;;;2.23;1.73;;;7.90;38.90;;;;;;5031557;28;20236;-62
2022/09/22 03:29:09;;;;;;;5.40;1.70;;;7.90;40.20;;;;;;5032014;28;20736;-61
2022/09/22 03:31:36;;;;;;;2.87;1.70;;;7.80;41.50;;;;;;5031508;28;20854;-59
2022/09/22 03:34:03;;;;;;;2.83;1.90;;;7.80;43.20;;;;;;5031932;28;20256;-61
2022/09/22 03:36:29;;;;;;;4.87;1.63;;;7.70;45.40;;;;;;5031468;28;20334;-62
2022/09/22 03:38:56;;;;;;;3.97;1.60;;;7.70;47.40;;;;;;5031549;28;20839;-58
2022/09/22 03:41:24;;;;;;;2.30;1.60;;;7.70;50.00;;;;;;5031718;28;20293;-61
2022/09/22 03:43:51;;;;;;;3.23;1.50;;;7.60;53.00;;;;;;5031958;28;20211;-61
2022/09/22 03:46:18;;;;;;;2.07;1.47;;;7.60;57.10;;;;;;5031279;28;20284;-62
2022/09/22 03:48:45;;;;;;;3.63;1.40;;;7.50;61.00;;;;;;5031726;28;20203;-62
2022/09/22 03:51:11;;;;;;;2.97;1.37;;;7.50;66.80;;;;;;5031809;28;20264;-60
2022/09/22 03:53:38;;;;;;;3.90;1.90;;;7.40;72.90;;;;;;5031872;28;20628;-61
2022/09/22 03:56:06;;;;;;;3.23;1.80;;;7.40;79.00;;;;;;5031411;28;20226;-60
2022/09/22 03:58:35;;;;;;;5.87;2.20;;;7.30;87.30;;;;;;5031710;28;20226;-60
2022/09/22 04:01:01;;;;;;;2.60;1.87;;;7.30;91.20;;;;;;5031609;28;20202;-62
2022/09/22 04:03:28;;;;;;;4.63;1.50;;;7.20;94.20;;;;;;5031551;28;20214;-61
2022/09/22 04:05:55;;;;;;;5.70;1.70;;;7.20;96.70;;;;;;5031473;28;20581;-61
2022/09/22 04:08:22;;;;;;;2.60;1.43;;;7.20;99.40;;;;;;5031890;28;20624;-59
2022/09/22 04:10:48;;;;;;;2.00;1.50;;;7.10;99.90;;;;;;5031620;28;20626;-61
2022/09/22 04:13:15;;;;;;;2.67;1.50;;;7.10;99.90;;;;;;5031552;28;20202;-60
2022/09/22 04:15:45;;;;;;;2.30;1.73;;;7.10;99.90;;;;;;5031257;28;20217;-61
2022/09/22 04:18:13;;;;;;;2.80;1.40;;;7.10;99.90;;;;;;5031039;28;20642;-61
2022/09/22 04:20:42;;;;;;;1.93;1.50;;;7.00;99.90;;;;;;5031431;28;20264;-61
2022/09/22 04:23:09;;;;;;;4.07;1.60;;;7.00;99.90;;;;;;5031342;28;20665;-61
2022/09/22 04:25:36;;;;;;;4.47;1.43;;;7.00;99.90;;;;;;5031619;28;20695;-62
2022/09/22 04:28:02;;;;;;;3.00;1.67;;;7.00;99.90;;;;;;5034953;28;20233;-61
2022/09/22 04:30:29;;;;;;;5.10;1.63;;;6.90;99.90;;;;;;5034956;28;20264;-61
2022/09/22 04:32:58;;;;;;;2.97;2.00;;;6.90;99.90;;;;;;5034555;28;20206;-61
2022/09/22 04:35:25;;;;;;;4.23;1.80;;;6.90;99.90;;;;;;5035227;28;20210;-61
2022/09/22 04:37:52;;;;;;;6.53;1.80;;;6.80;99.90;;;;;;5034774;28;20280;-62
2022/09/22 04:40:21;;;;;;;4.33;1.60;;;6.80;99.90;;;;;;5034929;28;20206;-61
2022/09/22 04:42:48;;;;;;;5.57;1.83;;;6.80;99.90;;;;;;5034790;28;20296;-61
2022/09/22 04:45:15;;;;;;;3.23;2.27;;;6.80;99.90;;;;;;5035094;28;20249;-61
2022/09/22 04:47:44;;;;;;;4.40;2.20;;;6.70;99.90;;;;;;5034780;28;20283;-61
2022/09/22 04:50:12;;;;;;;4.17;2.27;;;6.70;99.90;;;;;;5034869;28;20264;-60
2022/09/22 04:52:39;;;;;;;6.30;2.03;;;6.70;99.90;;;;;;5032929;28;20629;-62
2022/09/22 04:55:07;;;;;;;3.27;1.77;;;6.70;99.90;;;;;;5034194;28;20202;-59
2022/09/22 04:57:33;;;;;;;4.80;2.17;;;6.70;99.90;;;;;;5033608;28;20230;-62
2022/09/22 05:00:00;;;;;;;5.20;1.97;;;6.70;99.90;;;;;;5034195;28;20210;-61
2022/09/22 05:02:26;;;;;;;5.37;2.17;;;6.70;99.90;;;;;;5034146;28;20581;-61
2022/09/22 05:04:53;;;;;;;4.03;2.53;;;6.70;99.90;;;;;;5034567;28;20214;-61
2022/09/22 05:07:21;;;;;;;5.13;2.50;;;6.60;99.90;;;;;;5033949;28;20771;-59
2022/09/22 05:09:48;;;;;;;4.90;2.23;;;6.60;99.90;;;;;;5033829;28;20206;-57
2022/09/22 05:12:14;;;;;;;6.43;2.83;;;6.60;99.90;;;;;;5034316;28;20207;-61
2022/09/22 05:14:41;;;;;;;6.87;2.43;;;6.60;99.90;;;;;;5033710;28;20600;-57
2022/09/22 05:17:08;;;;;;;3.50;2.50;;;6.60;99.90;;;;;;5033948;28;20583;-57
2022/09/22 05:19:35;;;;;;;3.17;2.20;;;6.60;99.90;;;;;;5037062;28;20226;-62
2022/09/22 05:22:01;;;;;;;5.70;2.90;;;6.50;99.90;;;;;;5040770;28;20264;-62
2022/09/22 05:24:30;;;;;;;3.20;2.13;;;6.50;99.90;;;;;;5039831;28;20280;-62
2022/09/22 05:26:57;;;;;;;4.00;2.60;;;6.50;99.90;;;;;;5033558;28;20241;-62
2022/09/22 05:29:24;;;;;;;3.10;2.30;;;6.50;99.90;;;;;;5033615;28;20568;-64
2022/09/22 05:31:51;;;;;;;3.10;2.10;;;6.50;99.90;;;;;;5033040;28;20210;-62
2022/09/22 05:34:17;;;;;;;2.77;1.80;;;6.50;99.90;;;;;;5033643;28;20206;-61
2022/09/22 05:36:44;;;;;;;3.33;1.90;;;6.50;99.90;;;;;;5033160;28;20235;-63
2022/09/22 05:39:11;;;;;;;3.70;2.10;;;6.50;99.90;;;;;;5033015;28;20218;-59
2022/09/22 05:41:39;;;;;;;4.67;2.00;;;6.50;99.90;;;;;;5032730;28;20218;-62
2022/09/22 05:44:05;;;;;;;5.53;2.07;;;6.50;99.90;;;;;;5033808;28;20206;-62
2022/09/22 05:46:32;;;;;;;4.90;2.07;;;6.50;99.90;;;;;;5032686;28;20234;-61
2022/09/22 05:48:58;;;;;;;3.07;1.80;;;6.50;99.90;;;;;;5033740;28;20260;-59
2022/09/22 05:51:25;;;;;;;5.00;2.37;;;6.50;99.90;;;;;;5032802;28;20203;-58
2022/09/22 05:53:52;;;;;;;4.67;1.67;;;6.60;99.90;;;;;;5037374;28;20628;-60
2022/09/22 05:56:19;;;;;;;2.57;1.77;;;6.60;99.90;;;;;;5041470;28;20611;-59
2022/09/22 05:58:48;;;;;;;3.47;2.20;;;6.60;99.90;;;;;;5033099;28;20272;-61
2022/09/22 06:01:15;;;;;;;2.53;2.03;;;6.70;99.90;;;;;;5033235;28;20256;-65
2022/09/22 06:03:41;;;;;;;2.10;1.80;;;6.70;99.90;;;;;;5032845;28;20625;-62
2022/09/22 06:06:08;;;;;;;4.60;2.40;;;6.70;99.90;;;;;;5032998;28;20226;-64
2022/09/22 06:08:35;;;;;;;3.00;2.03;;;6.80;99.90;;;;;;5032411;28;20613;-63
2022/09/22 06:11:01;;;;;;;3.97;2.33;;;6.80;99.90;;;;;;5033199;28;20206;-63
2022/09/22 06:13:28;;;;;;;4.70;2.20;;;6.80;99.90;;;;;;5032617;28;20258;-62
2022/09/22 06:15:56;;;;;;;3.63;2.20;;;6.90;99.90;;;;;;5032476;28;20234;-65
2022/09/22 06:18:25;;;;;;;2.73;1.87;;;6.90;99.90;;;;;;5032475;28;20257;-64
2022/09/22 06:20:54;;;;;;;5.07;2.50;;;7.00;99.90;;;;;;5032889;28;20233;-63
2022/09/22 06:23:21;;;;;;;5.53;2.73;;;7.00;99.90;;;;;;5032348;28;20216;-65
2022/09/22 06:25:48;;;;;;;7.00;2.43;;;7.10;99.90;;;;;;5032864;28;20206;-66
2022/09/22 06:28:15;;;;;;;3.60;2.67;;;7.20;99.90;;;;;;5032233;28;20257;-66
2022/09/22 06:30:42;;;;;;;3.37;2.30;;;7.20;99.90;;;;;;5032440;28;20666;-62
2022/09/22 06:33:11;;;;;;;5.30;3.13;;;7.30;99.90;;;;;;5032686;28;20253;-66
2022/09/22 06:35:41;;;;;;;8.43;3.10;;;7.40;99.90;;;;;;5031907;28;20214;-65
2022/09/22 06:38:12;;;;;;;7.40;2.77;;;7.40;99.90;;;;;;5032330;28;20240;-65
2022/09/22 06:40:38;;;;;;;6.63;2.40;;;7.50;99.90;;;;;;5032214;28;20828;-65
2022/09/22 06:43:10;;;;;;;5.33;2.90;;;7.60;99.90;;;;;;5032439;28;20676;-66
2022/09/22 06:45:37;;;;;;;6.73;3.03;;;7.60;99.90;;;;;;5031629;28;20219;-66
2022/09/22 06:48:04;;;;;;;9.53;3.20;;;7.70;99.90;;;;;;5031966;28;20210;-65
2022/09/22 06:50:32;;;;;;;6.67;2.97;;;7.90;99.90;;;;;;5031056;28;20206;-65
2022/09/22 06:53:00;;;;;;;5.60;2.90;;;7.90;99.90;;;;;;5031973;28;20206;-63
2022/09/22 06:55:27;;;;;;;7.73;2.90;;;8.10;99.90;;;;;;5031722;28;20204;-63
2022/09/22 06:57:57;;;;;;;5.47;3.53;;;8.20;99.90;;;;;;5031828;28;20231;-62
2022/09/22 07:00:30;;;;;;;11.13;3.23;;;8.30;99.90;;;;;;5031885;28;20314;-63
2022/09/22 07:03:03;;;;;;;9.50;3.73;;;8.40;99.90;;;;;;5032143;28;20300;-63
2022/09/22 07:05:29;;;;;;;9.20;3.83;;;8.50;99.90;;;;;;5032077;28;20260;-63
2022/09/22 07:07:57;;;;;;;5.43;3.43;;;8.60;99.90;;;;;;5031553;28;20237;-61
2022/09/22 07:10:24;;;;;;;6.03;3.33;;;8.70;99.90;;;;;;5031910;28;20281;-64
2022/09/22 07:12:51;;;;;;;7.03;3.07;;;8.80;99.90;;;;;;5031805;28;20263;-63
2022/09/22 07:15:17;;;;;;;10.00;2.70;;;9.00;99.90;;;;;;5031394;28;20264;-63
2022/09/22 07:17:44;;;;;;;3.47;2.13;;;9.10;99.90;;;;;;5031087;28;20762;-64
2022/09/22 07:20:11;;;;;;;5.63;3.03;;;9.20;99.90;;;;;;5031913;28;20284;-59
2022/09/22 07:22:38;;;;;;;3.57;2.40;;;9.30;99.90;;;;;;5031515;28;20225;-60
2022/09/22 07:25:07;;;;;;;4.73;2.40;;;9.50;99.90;;;;;;5032032;28;20206;-60
2022/09/22 07:27:34;;;;;;;5.87;2.00;;;9.60;99.90;;;;;;5030922;28;20233;-58
2022/09/22 07:30:02;;;;;;;5.67;1.73;;;9.70;99.90;;;;;;5031511;28;20282;-62
2022/09/22 07:32:33;;;;;;;3.23;2.00;;;9.90;99.90;;;;;;5031524;28;20245;-62
2022/09/22 07:35:00;;;;;;;2.53;1.97;;;10.00;99.90;;;;;;5031688;28;20647;-61
2022/09/22 07:37:28;;;;;;;2.20;1.80;;;10.20;88.10;;;;;;5031177;28;20230;-58
2022/09/22 07:39:55;;;;;;;5.47;2.17;;;10.40;73.50;;;;;;5021660;28;20317;-65
2022/09/22 07:42:23;;;;;;;1.77;1.53;;;10.50;56.50;;;;;;5029686;28;20206;-63
2022/09/22 07:50:18;;;;;;;3.97;1.70;;;10.90;13.60;;;;;;5030888;28;20201;-62
2022/09/22 07:52:50;;;;;;;2.80;1.47;;;11.10;3.80;;;;;;5030284;28;20206;-62
2022/09/22 07:55:17;;;;;;;4.27;1.60;;;11.20;3.30;;;;;;5030576;28;20245;-62
2022/09/22 07:57:48;;;;;;;7.10;1.27;;;11.30;1.00;;;;;;5030548;28;20233;-62
2022/09/22 08:00:15;;;;;;;2.87;1.53;;;11.50;1.00;;;;;;5030946;28;20321;-61
2022/09/22 08:02:43;;;;;;;1.70;1.20;;;11.70;1.00;;;;;;5034680;28;20258;-62
2022/09/22 08:05:10;;;;;;;2.10;1.30;;;11.90;1.00;;;;;;5034842;28;20214;-62
2022/09/22 08:07:37;;;;;;;2.50;1.40;;;12.00;1.00;;;;;;5033833;28;20237;-62
2022/09/22 08:10:04;;;;;;;2.47;1.37;;;12.20;1.00;;;;;;5035150;28;20213;-62
2022/09/22 08:12:31;;;;;;;2.27;1.30;;;12.40;1.00;;;;;;5034386;28;20629;-62
2022/09/22 08:14:59;;;;;;;2.70;1.37;;;12.50;1.00;;;;;;5034935;28;20212;-62
2022/09/22 08:17:26;;;;;;;2.87;1.17;;;12.70;1.00;;;;;;5033933;28;20226;-61
2022/09/22 08:19:52;;;;;;;2.30;1.23;;;12.80;1.00;;;;;;5034735;28;20276;-65
2022/09/22 08:22:19;;;;;;;2.90;1.30;;;13.00;99.90;;;;;;5034734;28;20331;-64
2022/09/22 08:24:45;;;;;;;1.50;1.20;;;13.20;99.90;;;;;;5035186;28;20213;-63
2022/09/22 08:27:12;;;;;;;2.77;1.30;;;13.30;99.90;;;;;;5034854;28;20288;-64
2022/09/22 08:29:38;;;;;;;1.30;1.13;;;13.40;99.90;;;;;;5034514;28;20261;-64
2022/09/22 08:32:07;;;;;;;1.67;1.20;;;13.60;1.00;;;;;;5035284;28;20202;-64
2022/09/22 08:34:33;;;;;;;6.03;1.63;;;13.80;99.90;;;;;;5034747;28;20272;-67
2022/09/22 08:37:00;;;;;;;2.80;1.40;;;13.90;1.00;;;;;;5035411;28;20295;-65
2022/09/22 08:39:26;;;;;;;2.00;1.20;;;14.00;1.00;;;;;;5033698;28;20234;-66
2022/09/22 08:42:17;;;;;;;2.00;1.17;;;14.10;99.90;;;;;;5034221;28;20260;-66
2022/09/22 08:44:51;;;;;;;1.73;1.00;;;14.30;1.00;;;;;;5033591;28;20240;-67
2022/09/22 08:53:20;;;;;;;2.70;1.40;;;14.50;1.00;;;;;;4991588;28;20246;-65
2022/09/22 08:55:54;;;;;;;4.67;1.60;;;14.60;1.00;;;;;;5024399;28;20210;-65
2022/09/22 08:58:30;;;;;;;3.83;1.50;;;14.70;1.00;;;;;;5033185;28;20202;-64
2022/09/22 09:01:07;;;;;;;7.03;1.37;;;14.80;1.00;;;;;;5034064;28;20630;-64
2022/09/22 09:03:53;;;;;;;3.23;1.10;;;14.90;1.00;;;;;;5033459;28;20565;-65
2022/09/22 09:06:27;;;;;;;3.13;1.20;;;15.00;99.90;;;;;;5033392;28;20233;-63
2022/09/22 09:09:22;;;;;;;2.03;1.10;;;15.00;99.90;;;;;;5033558;28;20214;-64
2022/09/22 09:12:12;;;;;;;3.37;1.30;;;15.10;99.90;;;;;;5031464;28;20206;-62
2022/09/22 09:15:03;;;;;;;1.47;1.10;;;15.20;99.90;;;;;;5020475;28;20577;-63
2022/09/22 09:17:34;;;;;;;2.47;1.23;;;15.30;99.90;;;;;;5032848;28;20227;-64
2022/09/22 09:20:15;;;;;;;1.27;0.93;;;15.40;99.90;;;;;;5032685;28;20229;-63
2022/09/22 09:22:47;;;;;;;2.50;0.93;;;15.40;99.90;;;;;;5033594;28;20207;-62
2022/09/22 09:25:21;;;;;;;1.73;1.00;;;15.50;99.90;;;;;;5033293;28;20207;-62
2022/09/22 09:27:52;;;;;;;1.33;1.00;;;15.60;99.90;;;;;;5033504;28;20256;-61
2022/09/22 09:30:20;;;;;;;2.50;1.30;;;15.70;99.90;;;;;;5036169;28;20272;-61
2022/09/22 09:32:50;;;;;;;3.63;1.27;;;15.70;99.90;;;;;;5035768;28;20638;-60
2022/09/22 09:35:25;;;;;;;1.50;1.10;;;15.90;99.90;;;;;;5035326;28;20210;-61
2022/09/22 09:37:54;;;;;;;3.47;1.10;;;16.10;99.90;;;;;;5032902;28;20232;-60
2022/09/22 09:40:27;;;;;;;1.57;0.83;;;16.20;99.90;;;;;;5032608;28;20248;-67
2022/09/22 09:43:00;;;;;;;1.33;0.80;;;16.30;99.90;;;;;;5033039;28;20595;-68
2022/09/22 09:45:34;;;;;;;1.40;1.00;;;16.40;99.90;;;;;;5032220;28;20312;-66
2022/09/22 09:48:12;;;;;;;2.30;1.10;;;16.40;99.90;;;;;;5032773;28;20209;-63
2022/09/22 09:50:40;;;;;;;0.80;0.70;;;16.50;99.90;;;;;;5032909;28;20198;-64
2022/09/22 09:53:17;;;;;;;1.40;0.80;;;16.60;99.90;;;;;;5032334;28;20207;-61
2022/09/22 09:55:44;;;;;;;1.33;0.73;;;16.70;99.90;;;;;;5032149;28;20210;-63
2022/09/22 10:00:29;;;;;;;4.27;0.83;;;16.80;99.90;;;;;;5032708;28;20210;-64
2022/09/22 10:00:59;;;;;;;2.77;0.87;;;16.90;99.90;;;;;;5032646;28;20257;-62
2022/09/22 10:03:29;;;;;;;2.23;1.10;;;17.00;99.90;;;;;;5032065;28;20202;-65
2022/09/22 10:06:01;;;;;;;2.10;0.90;;;17.00;99.90;;;;;;5032488;28;20233;-62
2022/09/22 10:08:33;;;;;;;2.67;0.87;;;17.10;99.90;;;;;;5031989;28;20221;-63
2022/09/22 10:11:01;;;;;;;2.37;0.90;;;16.70;99.90;;;;;;5032693;28;20233;-63
2022/09/22 10:13:35;;;;;;;1.80;1.20;;;16.70;99.90;;;;;;5031716;28;20214;-64
2022/09/22 10:16:16;;;;;;;1.47;0.90;;;16.60;99.90;;;;;;5031919;28;20873;-63
2022/09/22 10:18:43;;;;;;;1.17;0.70;;;16.40;99.90;;;;;;5031942;28;20276;-63
2022/09/22 10:21:16;;;;;;;3.13;0.80;;;16.30;99.90;;;;;;5032095;28;20226;-65
2022/09/22 10:23:44;;;;;;;1.07;0.80;;;16.40;99.90;;;;;;5031788;28;20681;-63
2022/09/22 10:26:29;;;;;;;1.87;0.80;;;16.60;99.90;;;;;;5031509;28;20273;-64
2022/09/22 10:29:16;;;;;;;1.57;0.83;;;16.70;99.90;;;;;;5032231;28;20202;-63
2022/09/22 10:32:04;;;;;;;1.60;0.90;;;16.30;99.90;;;;;;5031388;28;20217;-64
2022/09/22 10:34:34;;;;;;;1.23;0.93;;;16.20;99.90;;;;;;5032169;28;20206;-63
2022/09/22 10:37:07;;;;;;;1.57;0.90;;;16.50;99.90;;;;;;5031167;28;20234;-62
2022/09/22 10:39:40;;;;;;;2.43;0.90;;;16.60;99.90;;;;;;5031134;28;20226;-63
2022/09/22 10:42:18;;;;;;;1.70;1.20;;;16.60;99.90;;;;;;5030665;28;20264;-61
2022/09/22 10:44:45;;;;;;;2.50;1.10;;;16.30;99.90;;;;;;5031345;28;20260;-59
2022/09/22 10:47:29;;;;;;;2.37;1.63;;;16.40;99.90;;;;;;5031258;28;20638;-62
2022/09/22 10:50:30;;;;;;;1.10;0.67;;;16.50;99.90;;;;;;5031606;28;20575;-62
2022/09/22 10:53:05;;;;;;;0.67;0.57;;;16.80;99.90;;;;;;5031106;28;20202;-60
2022/09/22 10:55:36;;;;;;;1.73;0.70;;;17.10;99.90;;;;;;5031592;28;20639;-64
2022/09/22 10:58:25;;;;;;;1.40;0.90;;;17.40;99.90;;;;;;5030933;28;20677;-66
2022/09/22 11:01:08;;;;;;;1.30;0.80;;;17.60;99.90;;;;;;5031803;28;20280;-63
2022/09/22 11:04:03;;;;;;;1.77;1.00;;;18.00;99.90;;;;;;5030914;28;20220;-65
2022/09/22 11:12:42;;;;;;;1.57;1.10;;;17.90;99.90;;;;;;5031372;28;20210;-64
2022/09/22 11:15:31;;;;;;;1.17;0.73;;;18.00;99.90;;;;;;5031201;28;20202;-64
2022/09/22 11:18:13;;;;;;;1.10;0.67;;;18.20;99.90;;;;;;5031331;28;20257;-62
2022/09/22 11:20:42;;;;;;;1.90;0.80;;;18.30;99.90;;;;;;5030907;28;20778;-66
2022/09/22 11:23:34;;;;;;;1.30;1.07;;;18.10;99.90;;;;;;5031128;28;20701;-65
2022/09/22 11:26:17;;;;;;;2.67;0.73;;;18.10;99.90;;;;;;5030700;28;20628;-63
2022/09/22 11:28:54;;;;;;;0.60;0.53;;;17.80;99.90;;;;;;5031294;28;20265;-62
2022/09/22 11:31:35;;;;;;;4.10;0.70;;;17.70;99.90;;;;;;5030449;28;20264;-59
2022/09/22 11:34:16;;;;;;;1.20;0.63;;;17.60;99.90;;;;;;5031507;28;20214;-60
2022/09/22 11:36:55;;;;;;;2.53;0.80;;;17.30;99.90;;;;;;5030249;28;20222;-60
2022/09/22 11:39:33;;;;;;;1.03;0.60;;;17.40;99.90;;;;;;5030860;28;20202;-59
2022/09/22 11:42:13;;;;;;;0.97;0.60;;;17.40;99.90;;;;;;5030759;28;20264;-57
2022/09/22 11:44:43;;;;;;;2.43;0.80;;;17.70;99.90;;;;;;5030866;28;20213;-60
2022/09/22 11:47:25;;;;;;;1.43;0.50;;;17.90;99.90;;;;;;5031322;28;20704;-60
2022/09/22 11:50:13;;;;;;;1.63;0.90;;;18.30;99.90;;;;;;5030805;28;20210;-61
2022/09/22 11:52:59;;;;;;;1.47;0.50;;;18.30;99.90;;;;;;5030939;28;20243;-66
2022/09/22 11:55:35;;;;;;;0.93;0.80;;;18.50;99.90;;;;;;5030421;28;20209;-65
2022/09/22 11:58:07;;;;;;;0.93;0.67;;;18.60;99.90;;;;;;5030958;28;20746;-63
2022/09/22 12:00:38;;;;;;;1.13;0.60;;;18.70;99.90;;;;;;5030291;28;20226;-63
2022/09/22 12:03:13;;;;;;;0.80;0.60;;;18.70;99.90;;;;;;5028556;28;20210;-63
2022/09/22 12:05:43;;;;;;;1.53;0.87;;;18.80;99.90;;;;;;5030153;28;20209;-64
2022/09/22 12:08:13;;;;;;;1.37;0.70;;;18.80;99.90;;;;;;5030593;28;20214;-67
2022/09/22 12:10:43;;;;;;;0.70;0.63;;;18.80;99.90;;;;;;5028010;28;20206;-62
2022/09/22 12:13:15;;;;;;;1.43;0.80;;;18.80;99.90;;;;;;5029801;28;20206;-64
2022/09/22 12:15:57;;;;;;;1.63;1.00;;;18.70;99.90;;;;;;5030428;28;20311;-66
2022/09/22 12:18:31;;;;;;;1.60;0.90;;;18.50;99.90;;;;;;5030832;28;20210;-64
2022/09/22 12:21:01;;;;;;;1.63;0.80;;;18.60;99.90;;;;;;5030639;28;20746;-59
2022/09/22 12:23:37;;;;;;;0.80;0.70;;;18.60;99.90;;;;;;5029748;28;20272;-61
2022/09/22 12:26:07;;;;;;;1.50;0.60;;;18.60;99.90;;;;;;5028348;28;20234;-62
2022/09/22 12:28:39;;;;;;;1.07;0.83;;;18.80;99.90;;;;;;5029069;28;20214;-63
2022/09/22 12:31:11;;;;;;;0.87;0.73;;;18.80;99.90;;;;;;5030101;28;20209;-58
2022/09/22 12:33:44;;;;;;;1.33;0.53;;;18.80;99.90;;;;;;5029553;28;20210;-58
2022/09/22 12:36:11;;;;;;;1.37;0.80;;;18.90;99.90;;;;;;5030259;28;20253;-56
2022/09/22 12:38:37;;;;;;;1.90;0.83;;;18.60;99.90;;;;;;5030142;28;20272;-60
2022/09/22 12:41:05;;;;;;;1.00;0.80;;;18.60;99.90;;;;;;5030640;28;20304;-60
2022/09/22 12:43:36;;;;;;;1.23;0.70;;;18.40;99.90;;;;;;5030005;28;20210;-61
2022/09/22 12:46:11;;;;;;;1.53;1.07;;;18.60;99.90;;;;;;5030264;28;20234;-61
2022/09/22 12:48:38;;;;;;;2.03;0.70;;;18.60;99.90;;;;;;5033623;28;20202;-62
2022/09/22 12:51:30;;;;;;;1.23;0.90;;;18.40;99.90;;;;;;5033945;28;20581;-63
2022/09/22 12:54:32;;;;;;;0.90;0.70;;;18.60;99.90;;;;;;5033951;28;20206;-60
2022/09/22 12:57:00;;;;;;;1.47;1.00;;;18.80;99.90;;;;;;5028542;28;20272;-60
2022/09/22 12:59:54;;;;;;;0.90;0.70;;;18.90;99.90;;;;;;5014199;28;20211;-61
2022/09/22 13:02:29;;;;;;;1.33;0.80;;;18.80;99.90;;;;;;5027379;28;20628;-64
2022/09/22 13:05:30;;;;;;;1.17;0.93;;;18.80;99.90;;;;;;5033280;28;20738;-63
2022/09/22 13:07:57;;;;;;;1.47;1.10;;;18.80;99.90;;;;;;5032762;28;20221;-61
2022/09/22 13:10:56;;;;;;;0.80;0.70;;;18.80;99.90;;;;;;5033918;28;20280;-59
2022/09/22 13:13:38;;;;;;;1.53;0.83;;;18.80;99.90;;;;;;5033011;28;20206;-59
2022/09/22 13:16:34;;;;;;;1.87;0.90;;;18.80;99.90;;;;;;5033416;28;20226;-59
2022/09/22 13:19:01;;;;;;;1.00;0.83;;;18.80;99.90;;;;;;5031286;28;20297;-66
2022/09/22 13:21:29;;;;;;;1.10;1.00;;;18.70;99.90;;;;;;5031651;28;20226;-62
2022/09/22 13:23:57;;;;;;;1.20;0.90;;;18.80;99.90;;;;;;5033092;28;20215;-63
2022/09/22 13:26:26;;;;;;;1.73;0.70;;;18.80;99.90;;;;;;5033393;28;20591;-63
2022/09/22 13:29:02;;;;;;;1.70;1.07;;;18.80;99.90;;;;;;5033169;28;20625;-63
2022/09/22 13:31:36;;;;;;;1.80;1.10;;;18.90;99.90;;;;;;5032131;28;20213;-64